Terminal Aerodrome Forecast
Issued by NWS Charleston, WV

Home | Current Version | Previous Version | Text Only | Print | Product List | Glossary On
Versions: 1 2 3 4 5 6 7 8 9 10 11 12 13 14 15 16 17 18 19 20 21 22
270
FTUS41 KRLX 241755
TAFBKW
TAF
KBKW 241755Z 2418/2518 22012G22KT 6SM -SHRA BR OVC025
      TEMPO 2419/2423 3SM SHRA BR OVC035
     FM242300 22008KT P6SM BKN100
     FM250100 19008KT P6SM BKN150
     FM251000 20011G22KT 6SM SHRA BR OVC060
     FM251500 21012G24KT 3SM +SHRA BR OVC008
     FM251700 24011G23KT P6SM OVC015=

USA.gov is the U.S. government's official web portal to all federal, state and local government web resources and services.